sensor_id;sensor_type;location;lat;lon;timestamp;temperature;humidity
20416;DHT22;10367;52.202;5.996;2023-09-19T00:02:09;14.00;99.90
20416;DHT22;10367;52.202;5.996;2023-09-19T00:04:40;13.90;99.90
20416;DHT22;10367;52.202;5.996;2023-09-19T00:07:10;13.90;99.90
20416;DHT22;10367;52.202;5.996;2023-09-19T00:09:44;13.90;99.90
20416;DHT22;10367;52.202;5.996;2023-09-19T00:12:21;13.80;99.90
20416;DHT22;10367;52.202;5.996;2023-09-19T00:14:53;13.80;99.90
20416;DHT22;10367;52.202;5.996;2023-09-19T00:17:31;13.80;99.90
20416;DHT22;10367;52.202;5.996;2023-09-19T00:20:13;13.80;99.90
20416;DHT22;10367;52.202;5.996;2023-09-19T00:22:51;13.80;99.90
20416;DHT22;10367;52.202;5.996;2023-09-19T00:25:21;13.90;99.90
20416;DHT22;10367;52.202;5.996;2023-09-19T00:27:54;13.90;99.90
20416;DHT22;10367;52.202;5.996;2023-09-19T00:30:42;13.90;99.90
20416;DHT22;10367;52.202;5.996;2023-09-19T00:33:15;14.00;99.90
20416;DHT22;10367;52.202;5.996;2023-09-19T00:35:47;14.00;99.90
20416;DHT22;10367;52.202;5.996;2023-09-19T00:38:18;14.00;99.90
20416;DHT22;10367;52.202;5.996;2023-09-19T00:40:50;14.00;99.90
20416;DHT22;10367;52.202;5.996;2023-09-19T00:43:21;14.00;99.90
20416;DHT22;10367;52.202;5.996;2023-09-19T00:45:54;14.00;99.90
20416;DHT22;10367;52.202;5.996;2023-09-19T00:48:28;14.00;99.90
20416;DHT22;10367;52.202;5.996;2023-09-19T00:51:01;13.90;99.90
20416;DHT22;10367;52.202;5.996;2023-09-19T00:53:35;13.90;99.90
20416;DHT22;10367;52.202;5.996;2023-09-19T00:56:04;13.90;99.90
20416;DHT22;10367;52.202;5.996;2023-09-19T00:58:36;13.90;99.90
20416;DHT22;10367;52.202;5.996;2023-09-19T01:01:14;13.80;99.90
20416;DHT22;10367;52.202;5.996;2023-09-19T01:03:46;13.80;99.90
20416;DHT22;10367;52.202;5.996;2023-09-19T01:06:17;13.80;99.90
20416;DHT22;10367;52.202;5.996;2023-09-19T01:08:46;13.80;99.90
20416;DHT22;10367;52.202;5.996;2023-09-19T01:11:28;13.80;99.90
20416;DHT22;10367;52.202;5.996;2023-09-19T01:14:18;13.90;99.90
20416;DHT22;10367;52.202;5.996;2023-09-19T01:16:56;13.90;99.90
20416;DHT22;10367;52.202;5.996;2023-09-19T01:22:30;14.00;99.90
20416;DHT22;10367;52.202;5.996;2023-09-19T01:28:20;14.00;99.90
20416;DHT22;10367;52.202;5.996;2023-09-19T01:30:55;14.00;99.90
20416;DHT22;10367;52.202;5.996;2023-09-19T01:33:26;14.00;99.90
20416;DHT22;10367;52.202;5.996;2023-09-19T01:35:55;14.10;99.90
20416;DHT22;10367;52.202;5.996;2023-09-19T01:38:26;14.10;99.90
20416;DHT22;10367;52.202;5.996;2023-09-19T01:41:06;14.10;99.90
20416;DHT22;10367;52.202;5.996;2023-09-19T01:43:41;14.10;99.90
20416;DHT22;10367;52.202;5.996;2023-09-19T01:46:19;14.10;99.90
20416;DHT22;10367;52.202;5.996;2023-09-19T01:48:57;14.10;99.90
20416;DHT22;10367;52.202;5.996;2023-09-19T01:51:37;14.20;99.90
20416;DHT22;10367;52.202;5.996;2023-09-19T01:54:26;14.10;99.90
20416;DHT22;10367;52.202;5.996;2023-09-19T01:57:16;14.10;99.90
20416;DHT22;10367;52.202;5.996;2023-09-19T01:59:54;14.00;99.90
20416;DHT22;10367;52.202;5.996;2023-09-19T02:02:28;14.10;99.90
20416;DHT22;10367;52.202;5.996;2023-09-19T02:04:58;14.00;99.90
20416;DHT22;10367;52.202;5.996;2023-09-19T02:07:27;14.00;99.90
20416;DHT22;10367;52.202;5.996;2023-09-19T02:10:00;14.00;99.90
20416;DHT22;10367;52.202;5.996;2023-09-19T02:12:33;14.00;99.90
20416;DHT22;10367;52.202;5.996;2023-09-19T02:15:04;14.00;99.90
20416;DHT22;10367;52.202;5.996;2023-09-19T02:17:36;14.00;99.90
20416;DHT22;10367;52.202;5.996;2023-09-19T02:20:06;13.90;99.90
20416;DHT22;10367;52.202;5.996;2023-09-19T02:22:45;13.90;99.90
20416;DHT22;10367;52.202;5.996;2023-09-19T02:25:16;13.90;99.90
20416;DHT22;10367;52.202;5.996;2023-09-19T02:27:46;13.90;99.90
20416;DHT22;10367;52.202;5.996;2023-09-19T02:30:18;13.90;99.90
20416;DHT22;10367;52.202;5.996;2023-09-19T02:32:51;13.90;99.90
20416;DHT22;10367;52.202;5.996;2023-09-19T02:35:24;13.90;99.90
20416;DHT22;10367;52.202;5.996;2023-09-19T02:37:55;13.90;99.90
20416;DHT22;10367;52.202;5.996;2023-09-19T02:40:27;13.90;99.90
20416;DHT22;10367;52.202;5.996;2023-09-19T02:42:56;13.90;99.90
20416;DHT22;10367;52.202;5.996;2023-09-19T02:45:27;13.90;99.90
20416;DHT22;10367;52.202;5.996;2023-09-19T02:47:59;13.80;99.90
20416;DHT22;10367;52.202;5.996;2023-09-19T02:50:31;13.80;99.90
20416;DHT22;10367;52.202;5.996;2023-09-19T02:53:04;13.70;99.90
20416;DHT22;10367;52.202;5.996;2023-09-19T02:55:37;13.70;99.90
20416;DHT22;10367;52.202;5.996;2023-09-19T02:58:09;13.70;99.90
20416;DHT22;10367;52.202;5.996;2023-09-19T03:00:54;13.70;99.90
20416;DHT22;10367;52.202;5.996;2023-09-19T03:03:24;13.70;99.90
20416;DHT22;10367;52.202;5.996;2023-09-19T03:05:56;13.70;99.90
20416;DHT22;10367;52.202;5.996;2023-09-19T03:08:26;13.70;99.90
20416;DHT22;10367;52.202;5.996;2023-09-19T03:10:55;13.60;99.90
20416;DHT22;10367;52.202;5.996;2023-09-19T03:13:24;13.60;99.90
20416;DHT22;10367;52.202;5.996;2023-09-19T03:15:54;13.60;99.90
20416;DHT22;10367;52.202;5.996;2023-09-19T03:18:25;13.60;99.90
20416;DHT22;10367;52.202;5.996;2023-09-19T03:20:55;13.60;99.90
20416;DHT22;10367;52.202;5.996;2023-09-19T03:23:24;13.50;99.90
20416;DHT22;10367;52.202;5.996;2023-09-19T03:25:53;13.50;99.90
20416;DHT22;10367;52.202;5.996;2023-09-19T03:28:26;13.50;99.90
20416;DHT22;10367;52.202;5.996;2023-09-19T03:31:02;13.50;99.90
20416;DHT22;10367;52.202;5.996;2023-09-19T03:33:33;13.40;99.90
20416;DHT22;10367;52.202;5.996;2023-09-19T03:36:05;13.40;99.90
20416;DHT22;10367;52.202;5.996;2023-09-19T03:38:34;13.30;99.90
20416;DHT22;10367;52.202;5.996;2023-09-19T03:41:03;13.40;99.90
20416;DHT22;10367;52.202;5.996;2023-09-19T03:43:33;13.30;99.90
20416;DHT22;10367;52.202;5.996;2023-09-19T03:46:06;13.30;99.90
20416;DHT22;10367;52.202;5.996;2023-09-19T03:48:43;13.20;99.90
20416;DHT22;10367;52.202;5.996;2023-09-19T03:51:12;13.10;99.90
20416;DHT22;10367;52.202;5.996;2023-09-19T03:53:43;13.10;99.90
20416;DHT22;10367;52.202;5.996;2023-09-19T03:56:12;13.10;99.90
20416;DHT22;10367;52.202;5.996;2023-09-19T03:58:41;13.00;99.90
20416;DHT22;10367;52.202;5.996;2023-09-19T04:01:10;12.90;99.90
20416;DHT22;10367;52.202;5.996;2023-09-19T04:03:45;12.80;99.90
20416;DHT22;10367;52.202;5.996;2023-09-19T04:06:18;12.80;99.90
20416;DHT22;10367;52.202;5.996;2023-09-19T04:08:49;12.70;99.90
20416;DHT22;10367;52.202;5.996;2023-09-19T04:11:34;12.70;99.90
20416;DHT22;10367;52.202;5.996;2023-09-19T04:14:05;12.70;99.90
20416;DHT22;10367;52.202;5.996;2023-09-19T04:16:35;12.70;99.90
20416;DHT22;10367;52.202;5.996;2023-09-19T04:19:11;12.60;99.90
20416;DHT22;10367;52.202;5.996;2023-09-19T04:21:42;12.60;99.90
20416;DHT22;10367;52.202;5.996;2023-09-19T04:24:11;12.60;99.90
20416;DHT22;10367;52.202;5.996;2023-09-19T04:26:40;12.60;99.90
20416;DHT22;10367;52.202;5.996;2023-09-19T04:29:18;12.60;99.90
20416;DHT22;10367;52.202;5.996;2023-09-19T04:31:47;12.60;99.90
20416;DHT22;10367;52.202;5.996;2023-09-19T04:34:21;12.50;99.90
20416;DHT22;10367;52.202;5.996;2023-09-19T04:36:51;12.50;99.90
20416;DHT22;10367;52.202;5.996;2023-09-19T04:39:21;12.50;99.90
20416;DHT22;10367;52.202;5.996;2023-09-19T04:41:53;12.40;99.90
20416;DHT22;10367;52.202;5.996;2023-09-19T04:44:22;12.40;99.90
20416;DHT22;10367;52.202;5.996;2023-09-19T04:46:53;12.40;99.90
20416;DHT22;10367;52.202;5.996;2023-09-19T04:49:23;12.40;99.90
20416;DHT22;10367;52.202;5.996;2023-09-19T04:51:52;12.40;99.90
20416;DHT22;10367;52.202;5.996;2023-09-19T04:54:34;12.40;99.90
20416;DHT22;10367;52.202;5.996;2023-09-19T04:57:07;12.40;99.90
20416;DHT22;10367;52.202;5.996;2023-09-19T04:59:39;12.40;99.90
20416;DHT22;10367;52.202;5.996;2023-09-19T05:02:11;12.50;99.90
20416;DHT22;10367;52.202;5.996;2023-09-19T05:04:42;12.40;99.90
20416;DHT22;10367;52.202;5.996;2023-09-19T05:07:13;12.50;99.90
20416;DHT22;10367;52.202;5.996;2023-09-19T05:09:42;12.50;99.90
20416;DHT22;10367;52.202;5.996;2023-09-19T05:12:11;12.40;99.90
20416;DHT22;10367;52.202;5.996;2023-09-19T05:14:42;12.40;99.90
20416;DHT22;10367;52.202;5.996;2023-09-19T05:17:13;12.40;99.90
20416;DHT22;10367;52.202;5.996;2023-09-19T05:19:46;12.40;99.90
20416;DHT22;10367;52.202;5.996;2023-09-19T05:22:15;12.40;99.90
20416;DHT22;10367;52.202;5.996;2023-09-19T05:24:46;12.40;99.90
20416;DHT22;10367;52.202;5.996;2023-09-19T05:27:15;12.40;99.90
20416;DHT22;10367;52.202;5.996;2023-09-19T05:29:45;12.50;99.90
20416;DHT22;10367;52.202;5.996;2023-09-19T05:32:13;12.40;99.90
20416;DHT22;10367;52.202;5.996;2023-09-19T05:34:47;12.50;99.90
20416;DHT22;10367;52.202;5.996;2023-09-19T05:37:16;12.60;99.90
20416;DHT22;10367;52.202;5.996;2023-09-19T05:39:45;12.60;99.90
20416;DHT22;10367;52.202;5.996;2023-09-19T05:42:15;12.70;99.90
20416;DHT22;10367;52.202;5.996;2023-09-19T05:44:46;12.70;99.90
20416;DHT22;10367;52.202;5.996;2023-09-19T05:47:16;12.70;99.90
20416;DHT22;10367;52.202;5.996;2023-09-19T05:49:47;12.70;99.90
20416;DHT22;10367;52.202;5.996;2023-09-19T05:52:17;12.70;99.90
20416;DHT22;10367;52.202;5.996;2023-09-19T05:54:46;12.70;99.90
20416;DHT22;10367;52.202;5.996;2023-09-19T05:57:17;12.80;99.90
20416;DHT22;10367;52.202;5.996;2023-09-19T05:59:45;12.80;99.90
20416;DHT22;10367;52.202;5.996;2023-09-19T06:02:15;12.80;99.90
20416;DHT22;10367;52.202;5.996;2023-09-19T06:04:44;12.80;99.90
20416;DHT22;10367;52.202;5.996;2023-09-19T06:07:19;12.80;99.90
20416;DHT22;10367;52.202;5.996;2023-09-19T06:10:00;12.80;99.90
20416;DHT22;10367;52.202;5.996;2023-09-19T06:12:28;12.90;99.90
20416;DHT22;10367;52.202;5.996;2023-09-19T06:15:00;12.90;99.90
20416;DHT22;10367;52.202;5.996;2023-09-19T06:17:29;13.00;99.90
20416;DHT22;10367;52.202;5.996;2023-09-19T06:19:58;13.00;99.90
20416;DHT22;10367;52.202;5.996;2023-09-19T06:22:33;13.00;99.90
20416;DHT22;10367;52.202;5.996;2023-09-19T06:25:04;13.00;99.90
20416;DHT22;10367;52.202;5.996;2023-09-19T06:27:35;13.00;99.90
20416;DHT22;10367;52.202;5.996;2023-09-19T06:30:07;13.00;99.90
20416;DHT22;10367;52.202;5.996;2023-09-19T06:32:37;13.10;99.90
20416;DHT22;10367;52.202;5.996;2023-09-19T06:35:13;13.10;99.90
20416;DHT22;10367;52.202;5.996;2023-09-19T06:37:46;13.20;99.90
20416;DHT22;10367;52.202;5.996;2023-09-19T06:40:15;13.30;99.90
20416;DHT22;10367;52.202;5.996;2023-09-19T06:42:46;13.40;99.90
20416;DHT22;10367;52.202;5.996;2023-09-19T06:45:15;13.50;99.90
20416;DHT22;10367;52.202;5.996;2023-09-19T06:47:51;13.60;99.90
20416;DHT22;10367;52.202;5.996;2023-09-19T06:50:26;13.70;99.90
20416;DHT22;10367;52.202;5.996;2023-09-19T06:53:00;13.80;99.90
20416;DHT22;10367;52.202;5.996;2023-09-19T06:55:35;13.90;99.90
20416;DHT22;10367;52.202;5.996;2023-09-19T06:58:09;14.00;99.90
20416;DHT22;10367;52.202;5.996;2023-09-19T07:00:38;14.00;99.90
20416;DHT22;10367;52.202;5.996;2023-09-19T07:03:08;14.10;99.90
20416;DHT22;10367;52.202;5.996;2023-09-19T07:05:42;14.10;99.90
20416;DHT22;10367;52.202;5.996;2023-09-19T07:08:15;14.10;99.90
20416;DHT22;10367;52.202;5.996;2023-09-19T07:10:47;14.10;99.90
20416;DHT22;10367;52.202;5.996;2023-09-19T07:13:17;14.20;99.90
20416;DHT22;10367;52.202;5.996;2023-09-19T07:15:48;14.20;99.90
20416;DHT22;10367;52.202;5.996;2023-09-19T07:18:20;14.30;99.90
20416;DHT22;10367;52.202;5.996;2023-09-19T07:20:49;14.40;99.90
20416;DHT22;10367;52.202;5.996;2023-09-19T07:23:22;14.40;99.90
20416;DHT22;10367;52.202;5.996;2023-09-19T07:25:57;14.50;99.90
20416;DHT22;10367;52.202;5.996;2023-09-19T07:28:26;14.50;99.90
20416;DHT22;10367;52.202;5.996;2023-09-19T07:30:55;14.60;99.90
20416;DHT22;10367;52.202;5.996;2023-09-19T07:33:27;14.70;99.90
20416;DHT22;10367;52.202;5.996;2023-09-19T07:35:56;14.70;99.90
20416;DHT22;10367;52.202;5.996;2023-09-19T07:38:30;14.70;99.90
20416;DHT22;10367;52.202;5.996;2023-09-19T07:41:00;14.80;99.90
20416;DHT22;10367;52.202;5.996;2023-09-19T07:43:36;14.90;99.90
20416;DHT22;10367;52.202;5.996;2023-09-19T07:46:06;15.00;99.90
20416;DHT22;10367;52.202;5.996;2023-09-19T07:48:36;15.00;99.90
20416;DHT22;10367;52.202;5.996;2023-09-19T07:51:09;15.10;99.90
20416;DHT22;10367;52.202;5.996;2023-09-19T07:53:40;15.10;99.90
20416;DHT22;10367;52.202;5.996;2023-09-19T07:56:13;15.20;99.90
20416;DHT22;10367;52.202;5.996;2023-09-19T07:58:41;15.20;99.90
20416;DHT22;10367;52.202;5.996;2023-09-19T08:01:11;15.20;99.90
20416;DHT22;10367;52.202;5.996;2023-09-19T08:03:44;15.30;99.90
20416;DHT22;10367;52.202;5.996;2023-09-19T08:06:13;15.30;99.90
20416;DHT22;10367;52.202;5.996;2023-09-19T08:08:44;15.40;99.90
20416;DHT22;10367;52.202;5.996;2023-09-19T08:11:13;15.40;99.90
20416;DHT22;10367;52.202;5.996;2023-09-19T08:13:49;15.50;99.90
20416;DHT22;10367;52.202;5.996;2023-09-19T08:16:20;15.50;99.90
20416;DHT22;10367;52.202;5.996;2023-09-19T08:18:50;15.50;99.90
20416;DHT22;10367;52.202;5.996;2023-09-19T08:21:23;15.60;99.90
20416;DHT22;10367;52.202;5.996;2023-09-19T08:23:57;15.70;99.90
20416;DHT22;10367;52.202;5.996;2023-09-19T08:26:28;15.80;99.90
20416;DHT22;10367;52.202;5.996;2023-09-19T08:29:00;15.90;99.90
20416;DHT22;10367;52.202;5.996;2023-09-19T08:31:33;16.00;99.90
20416;DHT22;10367;52.202;5.996;2023-09-19T08:34:04;16.10;99.90
20416;DHT22;10367;52.202;5.996;2023-09-19T08:36:33;16.10;99.90
20416;DHT22;10367;52.202;5.996;2023-09-19T08:39:10;16.20;99.90
20416;DHT22;10367;52.202;5.996;2023-09-19T08:41:41;16.30;99.90
20416;DHT22;10367;52.202;5.996;2023-09-19T08:44:10;16.50;99.90
20416;DHT22;10367;52.202;5.996;2023-09-19T08:46:41;16.50;99.90
20416;DHT22;10367;52.202;5.996;2023-09-19T08:49:16;16.60;99.90
20416;DHT22;10367;52.202;5.996;2023-09-19T08:51:54;16.50;99.90
20416;DHT22;10367;52.202;5.996;2023-09-19T08:54:34;16.50;99.90
20416;DHT22;10367;52.202;5.996;2023-09-19T08:57:07;16.60;99.90
20416;DHT22;10367;52.202;5.996;2023-09-19T08:59:38;16.70;99.90
20416;DHT22;10367;52.202;5.996;2023-09-19T09:02:11;16.70;99.90
20416;DHT22;10367;52.202;5.996;2023-09-19T09:04:41;16.80;99.90
20416;DHT22;10367;52.202;5.996;2023-09-19T09:07:10;16.80;99.90
20416;DHT22;10367;52.202;5.996;2023-09-19T09:09:42;17.00;99.90
20416;DHT22;10367;52.202;5.996;2023-09-19T09:12:12;17.10;99.90
20416;DHT22;10367;52.202;5.996;2023-09-19T09:14:45;17.20;99.90
20416;DHT22;10367;52.202;5.996;2023-09-19T09:17:17;17.30;99.90
20416;DHT22;10367;52.202;5.996;2023-09-19T09:19:48;17.30;99.90
20416;DHT22;10367;52.202;5.996;2023-09-19T09:22:17;17.40;99.90
20416;DHT22;10367;52.202;5.996;2023-09-19T09:24:54;17.40;99.90
20416;DHT22;10367;52.202;5.996;2023-09-19T09:27:28;17.50;99.90
20416;DHT22;10367;52.202;5.996;2023-09-19T09:29:58;17.50;99.90
20416;DHT22;10367;52.202;5.996;2023-09-19T09:32:28;17.60;99.90
20416;DHT22;10367;52.202;5.996;2023-09-19T09:35:07;17.80;99.90
20416;DHT22;10367;52.202;5.996;2023-09-19T09:37:37;17.90;99.90
20416;DHT22;10367;52.202;5.996;2023-09-19T09:40:11;17.80;99.90
20416;DHT22;10367;52.202;5.996;2023-09-19T09:43:29;17.80;99.90
20416;DHT22;10367;52.202;5.996;2023-09-19T09:46:13;17.80;99.90
20416;DHT22;10367;52.202;5.996;2023-09-19T09:49:08;17.90;99.90
20416;DHT22;10367;52.202;5.996;2023-09-19T09:51:49;18.00;99.90
20416;DHT22;10367;52.202;5.996;2023-09-19T09:54:28;18.20;99.90
20416;DHT22;10367;52.202;5.996;2023-09-19T09:57:06;18.30;99.90
20416;DHT22;10367;52.202;5.996;2023-09-19T09:59:54;18.50;99.90
20416;DHT22;10367;52.202;5.996;2023-09-19T10:02:27;18.90;99.90
20416;DHT22;10367;52.202;5.996;2023-09-19T10:05:11;18.90;99.90
20416;DHT22;10367;52.202;5.996;2023-09-19T10:07:51;18.90;99.90
20416;DHT22;10367;52.202;5.996;2023-09-19T10:10:31;18.90;99.90
20416;DHT22;10367;52.202;5.996;2023-09-19T10:13:14;18.80;99.90
20416;DHT22;10367;52.202;5.996;2023-09-19T10:15:48;18.80;99.90
20416;DHT22;10367;52.202;5.996;2023-09-19T10:18:20;19.00;99.90
20416;DHT22;10367;52.202;5.996;2023-09-19T10:20:50;19.30;99.90
20416;DHT22;10367;52.202;5.996;2023-09-19T10:23:20;19.50;99.90
20416;DHT22;10367;52.202;5.996;2023-09-19T10:26:00;19.50;99.90
20416;DHT22;10367;52.202;5.996;2023-09-19T10:28:30;19.50;99.90
20416;DHT22;10367;52.202;5.996;2023-09-19T10:31:05;19.50;99.90
20416;DHT22;10367;52.202;5.996;2023-09-19T10:33:47;19.50;99.90
20416;DHT22;10367;52.202;5.996;2023-09-19T10:36:20;19.50;99.90
20416;DHT22;10367;52.202;5.996;2023-09-19T10:38:55;19.40;99.90
20416;DHT22;10367;52.202;5.996;2023-09-19T10:41:29;19.20;99.90
20416;DHT22;10367;52.202;5.996;2023-09-19T10:44:06;19.30;99.90
20416;DHT22;10367;52.202;5.996;2023-09-19T10:46:39;19.40;99.90
20416;DHT22;10367;52.202;5.996;2023-09-19T10:49:11;19.40;99.90
20416;DHT22;10367;52.202;5.996;2023-09-19T10:51:49;19.30;99.90
20416;DHT22;10367;52.202;5.996;2023-09-19T10:54:22;19.20;99.90
20416;DHT22;10367;52.202;5.996;2023-09-19T10:56:57;19.10;99.90
20416;DHT22;10367;52.202;5.996;2023-09-19T10:59:27;19.20;99.90
20416;DHT22;10367;52.202;5.996;2023-09-19T11:02:17;19.20;99.90
20416;DHT22;10367;52.202;5.996;2023-09-19T11:04:54;19.20;99.90
20416;DHT22;10367;52.202;5.996;2023-09-19T11:07:57;19.30;99.90
20416;DHT22;10367;52.202;5.996;2023-09-19T11:10:48;19.50;99.90
20416;DHT22;10367;52.202;5.996;2023-09-19T11:13:26;19.60;99.90
20416;DHT22;10367;52.202;5.996;2023-09-19T11:16:10;19.80;99.90
20416;DHT22;10367;52.202;5.996;2023-09-19T11:18:57;19.90;99.90
20416;DHT22;10367;52.202;5.996;2023-09-19T11:21:55;20.00;99.90
20416;DHT22;10367;52.202;5.996;2023-09-19T11:24:30;20.10;99.90
20416;DHT22;10367;52.202;5.996;2023-09-19T11:27:15;20.20;99.90
20416;DHT22;10367;52.202;5.996;2023-09-19T11:33:16;20.30;99.90
20416;DHT22;10367;52.202;5.996;2023-09-19T11:36:03;20.10;99.90
20416;DHT22;10367;52.202;5.996;2023-09-19T11:38:59;20.00;99.90
20416;DHT22;10367;52.202;5.996;2023-09-19T11:41:37;20.00;99.90
20416;DHT22;10367;52.202;5.996;2023-09-19T11:44:33;20.00;99.90
20416;DHT22;10367;52.202;5.996;2023-09-19T11:47:18;20.10;99.90
20416;DHT22;10367;52.202;5.996;2023-09-19T11:49:52;20.20;99.90
20416;DHT22;10367;52.202;5.996;2023-09-19T11:52:33;20.30;99.90
20416;DHT22;10367;52.202;5.996;2023-09-19T11:55:22;20.50;99.90
20416;DHT22;10367;52.202;5.996;2023-09-19T11:58:07;20.50;99.90
20416;DHT22;10367;52.202;5.996;2023-09-19T12:00:43;20.60;99.90
20416;DHT22;10367;52.202;5.996;2023-09-19T12:03:29;20.50;99.90
20416;DHT22;10367;52.202;5.996;2023-09-19T12:06:11;20.60;99.90
20416;DHT22;10367;52.202;5.996;2023-09-19T12:08:48;20.60;99.90
20416;DHT22;10367;52.202;5.996;2023-09-19T12:11:22;20.60;99.90
20416;DHT22;10367;52.202;5.996;2023-09-19T12:13:55;20.60;99.90
20416;DHT22;10367;52.202;5.996;2023-09-19T12:16:33;20.40;99.90
20416;DHT22;10367;52.202;5.996;2023-09-19T12:19:24;20.50;99.90
20416;DHT22;10367;52.202;5.996;2023-09-19T12:22:00;20.50;99.90
20416;DHT22;10367;52.202;5.996;2023-09-19T12:24:37;20.70;99.90
20416;DHT22;10367;52.202;5.996;2023-09-19T12:27:12;20.70;99.90
20416;DHT22;10367;52.202;5.996;2023-09-19T12:29:46;20.60;99.90
20416;DHT22;10367;52.202;5.996;2023-09-19T12:32:16;20.50;99.90
20416;DHT22;10367;52.202;5.996;2023-09-19T12:34:56;20.30;99.90
20416;DHT22;10367;52.202;5.996;2023-09-19T12:37:35;20.10;99.90
20416;DHT22;10367;52.202;5.996;2023-09-19T12:40:06;19.90;99.90
20416;DHT22;10367;52.202;5.996;2023-09-19T12:42:55;19.70;99.90
20416;DHT22;10367;52.202;5.996;2023-09-19T12:45:26;19.60;99.90
20416;DHT22;10367;52.202;5.996;2023-09-19T12:48:20;19.60;99.90
20416;DHT22;10367;52.202;5.996;2023-09-19T12:51:04;19.60;99.90
20416;DHT22;10367;52.202;5.996;2023-09-19T12:53:38;19.50;99.90
20416;DHT22;10367;52.202;5.996;2023-09-19T12:56:13;19.60;99.90
20416;DHT22;10367;52.202;5.996;2023-09-19T12:58:53;19.50;99.90
20416;DHT22;10367;52.202;5.996;2023-09-19T13:01:24;19.50;99.90
20416;DHT22;10367;52.202;5.996;2023-09-19T13:04:15;19.50;99.90
20416;DHT22;10367;52.202;5.996;2023-09-19T13:06:49;19.80;99.90
20416;DHT22;10367;52.202;5.996;2023-09-19T13:09:20;19.90;99.90
20416;DHT22;10367;52.202;5.996;2023-09-19T13:11:50;19.90;99.90
20416;DHT22;10367;52.202;5.996;2023-09-19T13:14:22;19.70;99.90
20416;DHT22;10367;52.202;5.996;2023-09-19T13:16:55;19.50;99.90
20416;DHT22;10367;52.202;5.996;2023-09-19T13:19:40;19.40;99.90
20416;DHT22;10367;52.202;5.996;2023-09-19T13:22:36;19.30;99.90
20416;DHT22;10367;52.202;5.996;2023-09-19T13:25:07;19.30;99.90
20416;DHT22;10367;52.202;5.996;2023-09-19T13:27:43;19.40;99.90
20416;DHT22;10367;52.202;5.996;2023-09-19T13:30:13;19.40;99.90
20416;DHT22;10367;52.202;5.996;2023-09-19T13:32:42;19.60;99.90
20416;DHT22;10367;52.202;5.996;2023-09-19T13:35:11;19.80;99.90
20416;DHT22;10367;52.202;5.996;2023-09-19T13:37:41;19.90;99.90
20416;DHT22;10367;52.202;5.996;2023-09-19T13:40:12;20.00;99.90
20416;DHT22;10367;52.202;5.996;2023-09-19T13:42:43;20.10;99.90
20416;DHT22;10367;52.202;5.996;2023-09-19T13:45:12;20.10;99.90
20416;DHT22;10367;52.202;5.996;2023-09-19T13:47:43;19.90;99.90
20416;DHT22;10367;52.202;5.996;2023-09-19T13:50:12;19.80;99.90
20416;DHT22;10367;52.202;5.996;2023-09-19T13:52:52;19.80;99.90
20416;DHT22;10367;52.202;5.996;2023-09-19T13:55:25;19.70;99.90
20416;DHT22;10367;52.202;5.996;2023-09-19T13:57:57;19.60;99.90
20416;DHT22;10367;52.202;5.996;2023-09-19T14:00:28;19.60;99.90
20416;DHT22;10367;52.202;5.996;2023-09-19T14:02:58;19.90;99.90
20416;DHT22;10367;52.202;5.996;2023-09-19T14:05:30;20.20;99.90
20416;DHT22;10367;52.202;5.996;2023-09-19T14:07:59;20.30;99.90
20416;DHT22;10367;52.202;5.996;2023-09-19T14:10:29;20.30;99.90
20416;DHT22;10367;52.202;5.996;2023-09-19T14:13:00;20.30;99.90
20416;DHT22;10367;52.202;5.996;2023-09-19T14:15:32;20.50;99.90
20416;DHT22;10367;52.202;5.996;2023-09-19T14:18:16;20.70;99.90
20416;DHT22;10367;52.202;5.996;2023-09-19T14:20:46;20.80;99.90
20416;DHT22;10367;52.202;5.996;2023-09-19T14:23:15;20.80;99.90
20416;DHT22;10367;52.202;5.996;2023-09-19T14:25:44;20.80;99.90
20416;DHT22;10367;52.202;5.996;2023-09-19T14:28:17;20.70;99.90
20416;DHT22;10367;52.202;5.996;2023-09-19T14:30:52;20.70;99.90
20416;DHT22;10367;52.202;5.996;2023-09-19T14:33:21;20.60;99.90
20416;DHT22;10367;52.202;5.996;2023-09-19T14:35:50;20.60;99.90
20416;DHT22;10367;52.202;5.996;2023-09-19T14:38:21;20.40;99.90
20416;DHT22;10367;52.202;5.996;2023-09-19T14:41:03;20.40;99.90
20416;DHT22;10367;52.202;5.996;2023-09-19T14:43:37;20.30;99.90
20416;DHT22;10367;52.202;5.996;2023-09-19T14:46:07;20.20;99.90
20416;DHT22;10367;52.202;5.996;2023-09-19T14:48:39;20.20;99.90
20416;DHT22;10367;52.202;5.996;2023-09-19T14:51:09;20.20;99.90
20416;DHT22;10367;52.202;5.996;2023-09-19T14:53:39;20.20;99.90
20416;DHT22;10367;52.202;5.996;2023-09-19T14:56:09;20.10;99.90
20416;DHT22;10367;52.202;5.996;2023-09-19T14:58:42;20.00;99.90
20416;DHT22;10367;52.202;5.996;2023-09-19T15:01:12;20.00;99.90
20416;DHT22;10367;52.202;5.996;2023-09-19T15:03:42;20.00;99.90
20416;DHT22;10367;52.202;5.996;2023-09-19T15:06:12;19.80;99.90
20416;DHT22;10367;52.202;5.996;2023-09-19T15:08:43;19.80;99.90
20416;DHT22;10367;52.202;5.996;2023-09-19T15:11:16;19.70;99.90
20416;DHT22;10367;52.202;5.996;2023-09-19T15:13:48;19.70;99.90
20416;DHT22;10367;52.202;5.996;2023-09-19T15:16:19;19.70;99.90
20416;DHT22;10367;52.202;5.996;2023-09-19T15:18:48;19.60;99.90
20416;DHT22;10367;52.202;5.996;2023-09-19T15:21:19;19.50;99.90
20416;DHT22;10367;52.202;5.996;2023-09-19T15:23:48;19.40;99.90
20416;DHT22;10367;52.202;5.996;2023-09-19T15:26:18;19.40;99.90
20416;DHT22;10367;52.202;5.996;2023-09-19T15:28:50;19.40;99.90
20416;DHT22;10367;52.202;5.996;2023-09-19T15:31:23;19.30;99.90
20416;DHT22;10367;52.202;5.996;2023-09-19T15:33:52;19.30;99.90
20416;DHT22;10367;52.202;5.996;2023-09-19T15:36:23;19.30;99.90
20416;DHT22;10367;52.202;5.996;2023-09-19T15:38:59;19.30;99.90
20416;DHT22;10367;52.202;5.996;2023-09-19T15:41:33;19.20;99.90
20416;DHT22;10367;52.202;5.996;2023-09-19T15:44:12;19.10;99.90
20416;DHT22;10367;52.202;5.996;2023-09-19T15:46:42;19.00;99.90
20416;DHT22;10367;52.202;5.996;2023-09-19T15:49:12;19.00;99.90
20416;DHT22;10367;52.202;5.996;2023-09-19T15:51:41;19.00;99.90
20416;DHT22;10367;52.202;5.996;2023-09-19T15:54:14;19.00;99.90
20416;DHT22;10367;52.202;5.996;2023-09-19T15:56:45;19.00;99.90
20416;DHT22;10367;52.202;5.996;2023-09-19T15:59:17;19.00;99.90
20416;DHT22;10367;52.202;5.996;2023-09-19T16:01:46;18.90;99.90
20416;DHT22;10367;52.202;5.996;2023-09-19T16:04:16;18.90;99.90
20416;DHT22;10367;52.202;5.996;2023-09-19T16:06:45;18.80;99.90
20416;DHT22;10367;52.202;5.996;2023-09-19T16:09:18;18.70;99.90
20416;DHT22;10367;52.202;5.996;2023-09-19T16:11:50;18.60;99.90
20416;DHT22;10367;52.202;5.996;2023-09-19T16:14:22;18.50;99.90
20416;DHT22;10367;52.202;5.996;2023-09-19T16:16:54;18.30;99.90
20416;DHT22;10367;52.202;5.996;2023-09-19T16:19:25;18.20;99.90
20416;DHT22;10367;52.202;5.996;2023-09-19T16:21:54;18.10;99.90